sensor_id;sensor_type;location;lat;lon;timestamp;temperature;humidity
47921;DHT22;33686;48.770;9.186;2023-02-13T06:17:57;0.50;99.90
47921;DHT22;33686;48.770;9.186;2023-02-13T06:20:23;0.50;99.90
47921;DHT22;33686;48.770;9.186;2023-02-13T06:22:49;0.50;99.90
47921;DHT22;33686;48.770;9.186;2023-02-13T06:25:15;0.30;99.90
47921;DHT22;33686;48.770;9.186;2023-02-13T06:27:40;0.30;99.90
47921;DHT22;33686;48.770;9.186;2023-02-13T06:30:06;0.30;99.90
47921;DHT22;33686;48.770;9.186;2023-02-13T06:32:32;0.30;99.90
47921;DHT22;33686;48.770;9.186;2023-02-13T06:34:58;0.30;99.90
47921;DHT22;33686;48.770;9.186;2023-02-13T06:37:23;0.30;99.90
47921;DHT22;33686;48.770;9.186;2023-02-13T06:39:49;0.30;99.90
47921;DHT22;33686;48.770;9.186;2023-02-13T06:42:14;0.30;99.90
47921;DHT22;33686;48.770;9.186;2023-02-13T06:44:40;0.30;99.90
47921;DHT22;33686;48.770;9.186;2023-02-13T06:47:05;0.30;99.90
47921;DHT22;33686;48.770;9.186;2023-02-13T06:49:31;0.40;99.90
47921;DHT22;33686;48.770;9.186;2023-02-13T06:51:56;0.50;99.90
47921;DHT22;33686;48.770;9.186;2023-02-13T06:54:22;0.50;99.90
47921;DHT22;33686;48.770;9.186;2023-02-13T06:56:47;0.60;99.90
47921;DHT22;33686;48.770;9.186;2023-02-13T06:59:13;0.50;99.90
47921;DHT22;33686;48.770;9.186;2023-02-13T07:01:39;0.60;99.90
47921;DHT22;33686;48.770;9.186;2023-02-13T07:04:04;0.70;99.90
47921;DHT22;33686;48.770;9.186;2023-02-13T07:06:30;0.70;99.90
47921;DHT22;33686;48.770;9.186;2023-02-13T07:08:55;0.70;99.90
47921;DHT22;33686;48.770;9.186;2023-02-13T07:11:22;0.80;99.90
47921;DHT22;33686;48.770;9.186;2023-02-13T07:13:48;0.90;99.90
47921;DHT22;33686;48.770;9.186;2023-02-13T07:16:13;0.90;99.90
47921;DHT22;33686;48.770;9.186;2023-02-13T07:18:39;1.00;99.90
47921;DHT22;33686;48.770;9.186;2023-02-13T07:21:05;1.00;99.90
47921;DHT22;33686;48.770;9.186;2023-02-13T07:23:30;1.10;99.90
47921;DHT22;33686;48.770;9.186;2023-02-13T07:25:59;1.20;99.90
47921;DHT22;33686;48.770;9.186;2023-02-13T07:28:25;1.20;99.90
47921;DHT22;33686;48.770;9.186;2023-02-13T07:30:51;1.30;99.90
47921;DHT22;33686;48.770;9.186;2023-02-13T07:33:16;1.30;99.90
47921;DHT22;33686;48.770;9.186;2023-02-13T07:35:45;1.50;99.90
47921;DHT22;33686;48.770;9.186;2023-02-13T07:38:11;2.30;99.90
47921;DHT22;33686;48.770;9.186;2023-02-13T07:40:36;3.10;99.90
47921;DHT22;33686;48.770;9.186;2023-02-13T07:43:02;4.90;99.90
47921;DHT22;33686;48.770;9.186;2023-02-13T07:45:27;6.10;99.90
47921;DHT22;33686;48.770;9.186;2023-02-13T07:47:54;7.10;99.90
47921;DHT22;33686;48.770;9.186;2023-02-13T07:50:19;7.80;99.90
47921;DHT22;33686;48.770;9.186;2023-02-13T07:52:51;8.10;99.90
47921;DHT22;33686;48.770;9.186;2023-02-13T07:55:17;8.30;99.90
47921;DHT22;33686;48.770;9.186;2023-02-13T07:57:42;9.40;99.90
47921;DHT22;33686;48.770;9.186;2023-02-13T08:00:08;9.60;99.90
47921;DHT22;33686;48.770;9.186;2023-02-13T08:02:37;9.90;99.90
47921;DHT22;33686;48.770;9.186;2023-02-13T08:05:02;10.20;99.90
47921;DHT22;33686;48.770;9.186;2023-02-13T08:07:28;10.80;99.90
47921;DHT22;33686;48.770;9.186;2023-02-13T08:09:53;10.90;99.90
47921;DHT22;33686;48.770;9.186;2023-02-13T08:12:38;10.80;99.90
47921;DHT22;33686;48.770;9.186;2023-02-13T08:15:03;10.80;99.90
47921;DHT22;33686;48.770;9.186;2023-02-13T08:17:29;11.30;99.90
47921;DHT22;33686;48.770;9.186;2023-02-13T08:19:55;11.60;99.90
47921;DHT22;33686;48.770;9.186;2023-02-13T08:22:20;12.10;99.90
47921;DHT22;33686;48.770;9.186;2023-02-13T08:24:46;12.80;99.90
47921;DHT22;33686;48.770;9.186;2023-02-13T08:27:12;12.80;99.90
47921;DHT22;33686;48.770;9.186;2023-02-13T08:29:38;13.00;99.90
47921;DHT22;33686;48.770;9.186;2023-02-13T08:32:03;13.40;99.90
47921;DHT22;33686;48.770;9.186;2023-02-13T08:34:29;13.20;99.90
47921;DHT22;33686;48.770;9.186;2023-02-13T08:36:54;13.40;99.90
47921;DHT22;33686;48.770;9.186;2023-02-13T08:39:20;12.90;99.90
47921;DHT22;33686;48.770;9.186;2023-02-13T08:41:45;13.20;99.90
47921;DHT22;33686;48.770;9.186;2023-02-13T08:44:11;13.00;99.90
47921;DHT22;33686;48.770;9.186;2023-02-13T08:46:36;13.40;99.90
47921;DHT22;33686;48.770;9.186;2023-02-13T08:49:02;13.20;99.90
47921;DHT22;33686;48.770;9.186;2023-02-13T08:51:27;13.50;99.90
47921;DHT22;33686;48.770;9.186;2023-02-13T08:53:53;13.60;99.90
47921;DHT22;33686;48.770;9.186;2023-02-13T08:56:19;13.60;99.90
47921;DHT22;33686;48.770;9.186;2023-02-13T08:58:47;13.50;99.90
47921;DHT22;33686;48.770;9.186;2023-02-13T09:01:12;14.00;99.90
47921;DHT22;33686;48.770;9.186;2023-02-13T09:03:38;14.00;99.90
47921;DHT22;33686;48.770;9.186;2023-02-13T09:06:03;13.60;99.90
47921;DHT22;33686;48.770;9.186;2023-02-13T09:08:29;13.10;99.90
47921;DHT22;33686;48.770;9.186;2023-02-13T09:10:58;12.90;99.90
47921;DHT22;33686;48.770;9.186;2023-02-13T09:13:26;13.70;99.90
47921;DHT22;33686;48.770;9.186;2023-02-13T09:15:51;13.50;99.90
47921;DHT22;33686;48.770;9.186;2023-02-13T09:18:17;12.60;99.90
47921;DHT22;33686;48.770;9.186;2023-02-13T09:20:42;12.20;99.90
47921;DHT22;33686;48.770;9.186;2023-02-13T09:23:08;11.70;99.90
47921;DHT22;33686;48.770;9.186;2023-02-13T09:25:34;11.40;99.90
47921;DHT22;33686;48.770;9.186;2023-02-13T09:27:59;10.80;99.90
47921;DHT22;33686;48.770;9.186;2023-02-13T09:30:25;10.50;99.90
47921;DHT22;33686;48.770;9.186;2023-02-13T09:32:51;10.20;99.90
47921;DHT22;33686;48.770;9.186;2023-02-13T09:35:17;10.00;99.90
47921;DHT22;33686;48.770;9.186;2023-02-13T09:37:43;9.70;99.90
47921;DHT22;33686;48.770;9.186;2023-02-13T09:40:24;9.60;99.90
47921;DHT22;33686;48.770;9.186;2023-02-13T09:42:51;9.50;99.90
47921;DHT22;33686;48.770;9.186;2023-02-13T09:45:17;9.10;99.90
47921;DHT22;33686;48.770;9.186;2023-02-13T09:47:44;9.10;99.90
47921;DHT22;33686;48.770;9.186;2023-02-13T09:50:18;8.90;99.90
47921;DHT22;33686;48.770;9.186;2023-02-13T09:52:48;8.80;99.90
47921;DHT22;33686;48.770;9.186;2023-02-13T09:55:24;9.00;99.90
47921;DHT22;33686;48.770;9.186;2023-02-13T09:58:14;8.90;99.90
47921;DHT22;33686;48.770;9.186;2023-02-13T10:00:47;8.30;99.90
47921;DHT22;33686;48.770;9.186;2023-02-13T10:08:58;8.10;99.90
47921;DHT22;33686;48.770;9.186;2023-02-13T10:11:29;7.90;99.90
47921;DHT22;33686;48.770;9.186;2023-02-13T10:14:01;8.30;99.90
47921;DHT22;33686;48.770;9.186;2023-02-13T10:16:37;7.40;99.90
47921;DHT22;33686;48.770;9.186;2023-02-13T10:21:32;7.00;99.90
47921;DHT22;33686;48.770;9.186;2023-02-13T10:24:34;7.10;99.90
47921;DHT22;33686;48.770;9.186;2023-02-13T10:26:51;7.10;99.90
47921;DHT22;33686;48.770;9.186;2023-02-13T10:29:23;7.00;99.90
47921;DHT22;33686;48.770;9.186;2023-02-13T10:32:09;7.30;99.90
47921;DHT22;33686;48.770;9.186;2023-02-13T10:34:38;7.10;99.90
47921;DHT22;33686;48.770;9.186;2023-02-13T10:37:10;7.30;99.90
47921;DHT22;33686;48.770;9.186;2023-02-13T10:39:39;7.20;99.90
47921;DHT22;33686;48.770;9.186;2023-02-13T10:45:40;6.90;99.90
47921;DHT22;33686;48.770;9.186;2023-02-13T10:50:44;7.00;99.90
47921;DHT22;33686;48.770;9.186;2023-02-13T11:01:18;7.00;99.90
47921;DHT22;33686;48.770;9.186;2023-02-13T11:03:47;6.80;99.90
47921;DHT22;33686;48.770;9.186;2023-02-13T11:06:14;7.00;99.90
47921;DHT22;33686;48.770;9.186;2023-02-13T11:08:43;7.20;99.90
47921;DHT22;33686;48.770;9.186;2023-02-13T11:14:08;6.80;99.90
47921;DHT22;33686;48.770;9.186;2023-02-13T11:19:19;6.90;99.90
47921;DHT22;33686;48.770;9.186;2023-02-13T11:21:46;6.80;99.90
47921;DHT22;33686;48.770;9.186;2023-02-13T11:24:22;6.90;99.90
47921;DHT22;33686;48.770;9.186;2023-02-13T11:26:52;7.00;99.90
47921;DHT22;33686;48.770;9.186;2023-02-13T11:29:23;6.90;99.90
47921;DHT22;33686;48.770;9.186;2023-02-13T11:34:28;7.10;99.90
47921;DHT22;33686;48.770;9.186;2023-02-13T11:39:53;7.30;99.90
47921;DHT22;33686;48.770;9.186;2023-02-13T11:44:48;7.10;99.90
47921;DHT22;33686;48.770;9.186;2023-02-13T11:47:14;7.20;99.90
47921;DHT22;33686;48.770;9.186;2023-02-13T11:49:43;7.30;99.90
47921;DHT22;33686;48.770;9.186;2023-02-13T11:52:12;7.30;99.90
47921;DHT22;33686;48.770;9.186;2023-02-13T11:54:47;7.40;99.90
47921;DHT22;33686;48.770;9.186;2023-02-13T11:57:20;7.40;99.90
47921;DHT22;33686;48.770;9.186;2023-02-13T11:59:48;7.40;99.90
47921;DHT22;33686;48.770;9.186;2023-02-13T12:02:15;7.40;99.90
47921;DHT22;33686;48.770;9.186;2023-02-13T12:04:41;7.50;99.90
47921;DHT22;33686;48.770;9.186;2023-02-13T12:07:18;7.50;99.90
47921;DHT22;33686;48.770;9.186;2023-02-13T12:09:44;7.50;99.90
47921;DHT22;33686;48.770;9.186;2023-02-13T12:12:54;7.50;99.90
47921;DHT22;33686;48.770;9.186;2023-02-13T12:15:01;7.50;99.90
47921;DHT22;33686;48.770;9.186;2023-02-13T12:17:28;7.40;99.90
47921;DHT22;33686;48.770;9.186;2023-02-13T12:19:55;7.40;99.90
47921;DHT22;33686;48.770;9.186;2023-02-13T12:22:24;7.50;99.90
47921;DHT22;33686;48.770;9.186;2023-02-13T12:30:20;7.40;99.90
47921;DHT22;33686;48.770;9.186;2023-02-13T12:35:34;7.60;99.90
47921;DHT22;33686;48.770;9.186;2023-02-13T12:40:42;7.70;99.90
47921;DHT22;33686;48.770;9.186;2023-02-13T12:51:11;7.90;99.90
47921;DHT22;33686;48.770;9.186;2023-02-13T13:02:00;8.10;99.90
47921;DHT22;33686;48.770;9.186;2023-02-13T13:04:37;8.20;99.90
47921;DHT22;33686;48.770;9.186;2023-02-13T13:09:40;8.10;99.90
47921;DHT22;33686;48.770;9.186;2023-02-13T13:17:45;8.30;99.90
47921;DHT22;33686;48.770;9.186;2023-02-13T13:20:30;8.30;99.90
47921;DHT22;33686;48.770;9.186;2023-02-13T13:23:04;8.30;99.90
47921;DHT22;33686;48.770;9.186;2023-02-13T13:25:43;8.30;99.90
47921;DHT22;33686;48.770;9.186;2023-02-13T13:28:12;8.40;99.90
47921;DHT22;33686;48.770;9.186;2023-02-13T13:30:38;8.40;99.90
47921;DHT22;33686;48.770;9.186;2023-02-13T13:33:16;8.40;99.90
47921;DHT22;33686;48.770;9.186;2023-02-13T13:35:44;8.40;99.90
47921;DHT22;33686;48.770;9.186;2023-02-13T13:40:42;8.50;99.90
47921;DHT22;33686;48.770;9.186;2023-02-13T13:43:15;8.60;99.90
47921;DHT22;33686;48.770;9.186;2023-02-13T13:46:02;8.50;99.90
47921;DHT22;33686;48.770;9.186;2023-02-13T13:48:38;8.60;99.90
47921;DHT22;33686;48.770;9.186;2023-02-13T13:51:13;8.60;99.90
47921;DHT22;33686;48.770;9.186;2023-02-13T13:54:16;8.70;99.90
47921;DHT22;33686;48.770;9.186;2023-02-13T13:57:02;8.70;99.90
47921;DHT22;33686;48.770;9.186;2023-02-13T14:05:16;8.70;99.90
47921;DHT22;33686;48.770;9.186;2023-02-13T14:07:43;8.80;99.90
47921;DHT22;33686;48.770;9.186;2023-02-13T14:17:58;8.80;99.90
47921;DHT22;33686;48.770;9.186;2023-02-13T14:20:33;8.90;99.90
47921;DHT22;33686;48.770;9.186;2023-02-13T14:23:06;8.80;99.90
47921;DHT22;33686;48.770;9.186;2023-02-13T14:25:32;8.90;99.90
47921;DHT22;33686;48.770;9.186;2023-02-13T14:27:58;8.80;99.90
47921;DHT22;33686;48.770;9.186;2023-02-13T14:30:28;8.90;99.90
47921;DHT22;33686;48.770;9.186;2023-02-13T14:32:55;8.80;99.90
47921;DHT22;33686;48.770;9.186;2023-02-13T14:35:28;8.80;99.90
47921;DHT22;33686;48.770;9.186;2023-02-13T14:37:59;8.90;99.90
47921;DHT22;33686;48.770;9.186;2023-02-13T14:40:27;8.80;99.90
47921;DHT22;33686;48.770;9.186;2023-02-13T14:42:54;8.90;99.90
47921;DHT22;33686;48.770;9.186;2023-02-13T14:45:25;8.80;99.90
47921;DHT22;33686;48.770;9.186;2023-02-13T14:47:53;8.80;99.90
47921;DHT22;33686;48.770;9.186;2023-02-13T14:50:27;9.00;99.90
47921;DHT22;33686;48.770;9.186;2023-02-13T14:52:53;9.00;99.90
47921;DHT22;33686;48.770;9.186;2023-02-13T14:57:51;8.90;99.90
47921;DHT22;33686;48.770;9.186;2023-02-13T15:02:48;8.80;99.90
47921;DHT22;33686;48.770;9.186;2023-02-13T15:05:16;8.80;99.90
47921;DHT22;33686;48.770;9.186;2023-02-13T15:07:56;8.90;99.90
47921;DHT22;33686;48.770;9.186;2023-02-13T15:13:16;8.70;99.90
47921;DHT22;33686;48.770;9.186;2023-02-13T15:15:43;8.60;99.90
47921;DHT22;33686;48.770;9.186;2023-02-13T15:18:19;8.60;99.90
47921;DHT22;33686;48.770;9.186;2023-02-13T15:20:45;8.50;99.90
47921;DHT22;33686;48.770;9.186;2023-02-13T15:23:24;8.50;99.90
47921;DHT22;33686;48.770;9.186;2023-02-13T15:26:00;8.40;99.90
47921;DHT22;33686;48.770;9.186;2023-02-13T15:28:26;8.50;99.90
47921;DHT22;33686;48.770;9.186;2023-02-13T15:31:05;8.50;99.90
47921;DHT22;33686;48.770;9.186;2023-02-13T15:33:33;8.40;99.90
47921;DHT22;33686;48.770;9.186;2023-02-13T15:35:59;8.40;99.90
47921;DHT22;33686;48.770;9.186;2023-02-13T15:38:35;8.30;99.90
47921;DHT22;33686;48.770;9.186;2023-02-13T15:41:05;8.20;99.90
47921;DHT22;33686;48.770;9.186;2023-02-13T15:45:58;8.10;99.90
47921;DHT22;33686;48.770;9.186;2023-02-13T15:48:25;8.20;99.90
47921;DHT22;33686;48.770;9.186;2023-02-13T15:50:50;8.10;99.90
47921;DHT22;33686;48.770;9.186;2023-02-13T15:53:16;8.10;99.90
47921;DHT22;33686;48.770;9.186;2023-02-13T15:55:44;8.00;99.90
47921;DHT22;33686;48.770;9.186;2023-02-13T15:58:19;7.80;99.90
47921;DHT22;33686;48.770;9.186;2023-02-13T16:00:45;7.70;99.90
47921;DHT22;33686;48.770;9.186;2023-02-13T16:03:12;7.60;99.90
47921;DHT22;33686;48.770;9.186;2023-02-13T16:05:39;7.60;99.90
47921;DHT22;33686;48.770;9.186;2023-02-13T16:08:23;7.50;99.90
47921;DHT22;33686;48.770;9.186;2023-02-13T16:11:06;7.40;99.90
47921;DHT22;33686;48.770;9.186;2023-02-13T16:13:32;7.30;99.90
47921;DHT22;33686;48.770;9.186;2023-02-13T16:16:06;7.20;99.90
47921;DHT22;33686;48.770;9.186;2023-02-13T16:18:32;7.10;99.90
47921;DHT22;33686;48.770;9.186;2023-02-13T16:20:59;7.00;99.90
47921;DHT22;33686;48.770;9.186;2023-02-13T16:23:25;6.90;99.90
47921;DHT22;33686;48.770;9.186;2023-02-13T16:25:50;6.80;99.90
47921;DHT22;33686;48.770;9.186;2023-02-13T16:28:22;6.80;99.90
47921;DHT22;33686;48.770;9.186;2023-02-13T16:30:54;6.70;99.90
47921;DHT22;33686;48.770;9.186;2023-02-13T16:33:26;6.60;99.90
47921;DHT22;33686;48.770;9.186;2023-02-13T16:35:59;6.50;99.90
47921;DHT22;33686;48.770;9.186;2023-02-13T16:38:32;6.40;99.90
47921;DHT22;33686;48.770;9.186;2023-02-13T16:41:03;6.30;99.90
47921;DHT22;33686;48.770;9.186;2023-02-13T16:48:36;6.20;99.90
47921;DHT22;33686;48.770;9.186;2023-02-13T16:51:02;6.10;99.90
47921;DHT22;33686;48.770;9.186;2023-02-13T16:53:27;6.10;99.90
47921;DHT22;33686;48.770;9.186;2023-02-13T16:56:04;5.90;99.90
47921;DHT22;33686;48.770;9.186;2023-02-13T16:58:30;5.80;99.90
47921;DHT22;33686;48.770;9.186;2023-02-13T17:00:56;5.80;99.90
47921;DHT22;33686;48.770;9.186;2023-02-13T17:03:21;5.70;99.90
47921;DHT22;33686;48.770;9.186;2023-02-13T17:05:47;5.70;99.90
47921;DHT22;33686;48.770;9.186;2023-02-13T17:08:12;5.60;99.90
47921;DHT22;33686;48.770;9.186;2023-02-13T17:10:38;5.60;99.90
47921;DHT22;33686;48.770;9.186;2023-02-13T17:13:10;5.50;99.90
47921;DHT22;33686;48.770;9.186;2023-02-13T17:15:39;5.40;99.90
47921;DHT22;33686;48.770;9.186;2023-02-13T17:18:05;5.30;99.90
47921;DHT22;33686;48.770;9.186;2023-02-13T17:20:32;5.20;99.90
47921;DHT22;33686;48.770;9.186;2023-02-13T17:23:00;5.10;99.90
47921;DHT22;33686;48.770;9.186;2023-02-13T17:25:34;5.00;99.90
47921;DHT22;33686;48.770;9.186;2023-02-13T17:28:09;4.90;99.90
47921;DHT22;33686;48.770;9.186;2023-02-13T17:30:35;4.80;99.90
47921;DHT22;33686;48.770;9.186;2023-02-13T17:33:06;4.80;99.90
47921;DHT22;33686;48.770;9.186;2023-02-13T17:35:34;4.80;99.90
47921;DHT22;33686;48.770;9.186;2023-02-13T17:38:00;4.70;99.90
47921;DHT22;33686;48.770;9.186;2023-02-13T17:40:26;4.70;99.90
47921;DHT22;33686;48.770;9.186;2023-02-13T17:42:54;4.60;99.90
47921;DHT22;33686;48.770;9.186;2023-02-13T17:45:20;4.50;99.90
47921;DHT22;33686;48.770;9.186;2023-02-13T17:47:46;4.50;99.90
47921;DHT22;33686;48.770;9.186;2023-02-13T17:50:12;4.50;99.90
47921;DHT22;33686;48.770;9.186;2023-02-13T17:52:38;4.40;99.90
47921;DHT22;33686;48.770;9.186;2023-02-13T17:55:04;4.40;99.90
47921;DHT22;33686;48.770;9.186;2023-02-13T17:57:30;4.30;99.90
47921;DHT22;33686;48.770;9.186;2023-02-13T17:59:55;4.30;99.90
47921;DHT22;33686;48.770;9.186;2023-02-13T18:02:22;4.20;99.90
47921;DHT22;33686;48.770;9.186;2023-02-13T18:04:48;4.20;99.90
47921;DHT22;33686;48.770;9.186;2023-02-13T18:07:15;4.20;99.90
47921;DHT22;33686;48.770;9.186;2023-02-13T18:09:41;4.10;99.90
47921;DHT22;33686;48.770;9.186;2023-02-13T18:12:10;4.10;99.90
47921;DHT22;33686;48.770;9.186;2023-02-13T18:14:37;4.00;99.90
47921;DHT22;33686;48.770;9.186;2023-02-13T18:17:03;3.90;99.90
47921;DHT22;33686;48.770;9.186;2023-02-13T18:19:28;3.90;99.90
47921;DHT22;33686;48.770;9.186;2023-02-13T18:21:54;3.90;99.90
47921;DHT22;33686;48.770;9.186;2023-02-13T18:24:19;3.80;99.90
47921;DHT22;33686;48.770;9.186;2023-02-13T18:26:45;3.80;99.90
47921;DHT22;33686;48.770;9.186;2023-02-13T18:29:10;3.80;99.90
47921;DHT22;33686;48.770;9.186;2023-02-13T18:31:36;3.80;99.90
47921;DHT22;33686;48.770;9.186;2023-02-13T18:34:02;3.70;99.90
47921;DHT22;33686;48.770;9.186;2023-02-13T18:36:27;3.60;99.90
47921;DHT22;33686;48.770;9.186;2023-02-13T18:38:53;3.60;99.90
47921;DHT22;33686;48.770;9.186;2023-02-13T18:41:18;3.50;99.90
47921;DHT22;33686;48.770;9.186;2023-02-13T18:43:44;3.50;99.90
47921;DHT22;33686;48.770;9.186;2023-02-13T18:46:10;3.40;99.90
47921;DHT22;33686;48.770;9.186;2023-02-13T18:48:35;3.30;99.90
47921;DHT22;33686;48.770;9.186;2023-02-13T18:51:01;3.30;99.90
47921;DHT22;33686;48.770;9.186;2023-02-13T18:53:27;3.30;99.90
47921;DHT22;33686;48.770;9.186;2023-02-13T18:55:59;3.20;99.90
47921;DHT22;33686;48.770;9.186;2023-02-13T18:58:25;3.10;99.90
47921;DHT22;33686;48.770;9.186;2023-02-13T19:00:51;3.20;99.90
47921;DHT22;33686;48.770;9.186;2023-02-13T19:03:16;3.10;99.90
47921;DHT22;33686;48.770;9.186;2023-02-13T19:05:42;3.10;99.90
47921;DHT22;33686;48.770;9.186;2023-02-13T19:08:07;3.00;99.90
47921;DHT22;33686;48.770;9.186;2023-02-13T19:10:33;3.00;99.90
47921;DHT22;33686;48.770;9.186;2023-02-13T19:12:58;3.00;99.90
47921;DHT22;33686;48.770;9.186;2023-02-13T19:15:24;2.90;99.90
47921;DHT22;33686;48.770;9.186;2023-02-13T19:17:49;2.90;99.90
47921;DHT22;33686;48.770;9.186;2023-02-13T19:20:16;2.80;99.90
47921;DHT22;33686;48.770;9.186;2023-02-13T19:22:42;2.90;99.90
47921;DHT22;33686;48.770;9.186;2023-02-13T19:25:07;2.90;99.90
47921;DHT22;33686;48.770;9.186;2023-02-13T19:27:34;2.80;99.90
47921;DHT22;33686;48.770;9.186;2023-02-13T19:30:00;2.80;99.90
47921;DHT22;33686;48.770;9.186;2023-02-13T19:32:25;2.80;99.90
47921;DHT22;33686;48.770;9.186;2023-02-13T19:34:51;2.70;99.90
47921;DHT22;33686;48.770;9.186;2023-02-13T19:37:17;2.60;99.90
47921;DHT22;33686;48.770;9.186;2023-02-13T19:39:42;2.60;99.90
47921;DHT22;33686;48.770;9.186;2023-02-13T19:42:08;2.60;99.90
47921;DHT22;33686;48.770;9.186;2023-02-13T19:44:33;2.60;99.90
47921;DHT22;33686;48.770;9.186;2023-02-13T19:46:59;2.40;99.90
47921;DHT22;33686;48.770;9.186;2023-02-13T19:49:25;2.40;99.90
47921;DHT22;33686;48.770;9.186;2023-02-13T19:51:50;2.30;99.90
47921;DHT22;33686;48.770;9.186;2023-02-13T19:54:16;2.30;99.90
47921;DHT22;33686;48.770;9.186;2023-02-13T19:56:41;2.20;99.90
47921;DHT22;33686;48.770;9.186;2023-02-13T19:59:09;2.20;99.90
47921;DHT22;33686;48.770;9.186;2023-02-13T20:01:38;2.20;99.90
47921;DHT22;33686;48.770;9.186;2023-02-13T20:04:07;2.10;99.90
47921;DHT22;33686;48.770;9.186;2023-02-13T20:06:34;2.10;99.90
47921;DHT22;33686;48.770;9.186;2023-02-13T20:09:03;2.10;99.90
47921;DHT22;33686;48.770;9.186;2023-02-13T20:11:29;2.00;99.90
47921;DHT22;33686;48.770;9.186;2023-02-13T20:13:55;2.10;99.90
47921;DHT22;33686;48.770;9.186;2023-02-13T20:16:21;2.10;99.90
47921;DHT22;33686;48.770;9.186;2023-02-13T20:18:47;2.00;99.90
47921;DHT22;33686;48.770;9.186;2023-02-13T20:21:14;2.00;99.90
47921;DHT22;33686;48.770;9.186;2023-02-13T20:23:40;2.00;99.90
47921;DHT22;33686;48.770;9.186;2023-02-13T20:26:07;2.10;99.90
47921;DHT22;33686;48.770;9.186;2023-02-13T20:28:35;2.20;99.90
47921;DHT22;33686;48.770;9.186;2023-02-13T20:31:01;2.00;99.90
47921;DHT22;33686;48.770;9.186;2023-02-13T20:33:34;1.90;99.90
47921;DHT22;33686;48.770;9.186;2023-02-13T20:36:06;1.90;99.90
47921;DHT22;33686;48.770;9.186;2023-02-13T20:38:31;1.70;99.90
47921;DHT22;33686;48.770;9.186;2023-02-13T20:40:57;1.60;99.90
47921;DHT22;33686;48.770;9.186;2023-02-13T20:43:23;1.40;99.90
47921;DHT22;33686;48.770;9.186;2023-02-13T20:45:48;1.40;99.90
47921;DHT22;33686;48.770;9.186;2023-02-13T20:48:14;1.40;99.90
47921;DHT22;33686;48.770;9.186;2023-02-13T20:50:39;1.30;99.90
47921;DHT22;33686;48.770;9.186;2023-02-13T20:53:05;1.30;99.90
47921;DHT22;33686;48.770;9.186;2023-02-13T20:55:30;1.20;99.90
47921;DHT22;33686;48.770;9.186;2023-02-13T20:57:56;1.20;99.90
47921;DHT22;33686;48.770;9.186;2023-02-13T21:00:21;1.10;99.90
47921;DHT22;33686;48.770;9.186;2023-02-13T21:02:47;1.10;99.90
47921;DHT22;33686;48.770;9.186;2023-02-13T21:05:13;1.10;99.90
47921;DHT22;33686;48.770;9.186;2023-02-13T21:07:38;1.10;99.90
47921;DHT22;33686;48.770;9.186;2023-02-13T21:10:04;1.10;99.90
47921;DHT22;33686;48.770;9.186;2023-02-13T21:12:30;1.00;99.90
47921;DHT22;33686;48.770;9.186;2023-02-13T21:14:56;0.90;99.90
47921;DHT22;33686;48.770;9.186;2023-02-13T21:17:21;0.80;99.90
47921;DHT22;33686;48.770;9.186;2023-02-13T21:19:47;0.90;99.90
47921;DHT22;33686;48.770;9.186;2023-02-13T21:22:12;0.90;99.90
47921;DHT22;33686;48.770;9.186;2023-02-13T21:24:39;0.80;99.90
47921;DHT22;33686;48.770;9.186;2023-02-13T21:27:05;0.80;99.90
47921;DHT22;33686;48.770;9.186;2023-02-13T21:29:31;0.90;99.90
47921;DHT22;33686;48.770;9.186;2023-02-13T21:31:56;0.90;99.90
47921;DHT22;33686;48.770;9.186;2023-02-13T21:34:22;0.80;99.90
47921;DHT22;33686;48.770;9.186;2023-02-13T21:36:47;0.90;99.90
47921;DHT22;33686;48.770;9.186;2023-02-13T21:39:13;0.90;99.90
47921;DHT22;33686;48.770;9.186;2023-02-13T21:41:39;0.80;99.90
47921;DHT22;33686;48.770;9.186;2023-02-13T21:44:05;0.90;99.90
47921;DHT22;33686;48.770;9.186;2023-02-13T21:46:31;0.90;99.90
47921;DHT22;33686;48.770;9.186;2023-02-13T21:48:58;0.90;99.90
47921;DHT22;33686;48.770;9.186;2023-02-13T21:51:24;1.00;99.90
47921;DHT22;33686;48.770;9.186;2023-02-13T21:53:50;1.00;99.90
47921;DHT22;33686;48.770;9.186;2023-02-13T21:56:17;1.00;99.90
47921;DHT22;33686;48.770;9.186;2023-02-13T21:58:43;0.90;99.90
47921;DHT22;33686;48.770;9.186;2023-02-13T22:01:16;0.90;99.90
47921;DHT22;33686;48.770;9.186;2023-02-13T22:03:42;0.90;99.90
47921;DHT22;33686;48.770;9.186;2023-02-13T22:06:09;0.90;99.90
47921;DHT22;33686;48.770;9.186;2023-02-13T22:08:35;1.00;99.90
47921;DHT22;33686;48.770;9.186;2023-02-13T22:11:00;0.90;99.90
47921;DHT22;33686;48.770;9.186;2023-02-13T22:13:26;0.90;99.90
47921;DHT22;33686;48.770;9.186;2023-02-13T22:16:02;0.90;99.90
47921;DHT22;33686;48.770;9.186;2023-02-13T22:18:35;0.70;99.90
47921;DHT22;33686;48.770;9.186;2023-02-13T22:21:05;0.70;99.90
47921;DHT22;33686;48.770;9.186;2023-02-13T22:23:31;0.50;99.90
47921;DHT22;33686;48.770;9.186;2023-02-13T22:25:57;0.40;99.90
47921;DHT22;33686;48.770;9.186;2023-02-13T22:28:23;0.40;99.90
47921;DHT22;33686;48.770;9.186;2023-02-13T22:30:48;0.30;99.90
47921;DHT22;33686;48.770;9.186;2023-02-13T22:33:14;0.30;99.90
47921;DHT22;33686;48.770;9.186;2023-02-13T22:35:40;0.30;99.90
47921;DHT22;33686;48.770;9.186;2023-02-13T22:38:06;0.30;99.90
47921;DHT22;33686;48.770;9.186;2023-02-13T22:40:34;0.10;99.90
47921;DHT22;33686;48.770;9.186;2023-02-13T22:43:01;0.20;99.90
47921;DHT22;33686;48.770;9.186;2023-02-13T22:45:26;0.20;99.90
47921;DHT22;33686;48.770;9.186;2023-02-13T22:47:52;0.20;99.90
47921;DHT22;33686;48.770;9.186;2023-02-13T22:50:17;0.10;99.90
47921;DHT22;33686;48.770;9.186;2023-02-13T22:52:43;0.10;99.90
47921;DHT22;33686;48.770;9.186;2023-02-13T22:55:09;0.20;99.90
47921;DHT22;33686;48.770;9.186;2023-02-13T22:57:35;0.20;99.90
47921;DHT22;33686;48.770;9.186;2023-02-13T23:00:00;0.40;99.90
